Time;durP1;ratioP1;P1;durP2;ratioP2;P2;SDS_P1;SDS_P2;PMS_P1;PMS_P2;Temp;Humidity;BMP_temperature;BMP_pressure;BME280_temperature;BME280_humidity;BME280_pressure;Samples;Min_cycle;Max_cycle;Signal;HPM_P1;HPM_P2
2023/03/28 00:01:04;;;;;;;;;6.25;4.00;;;;;6.69;48.10;102413.47;6275534;22;45256;-73
2023/03/28 00:03:35;;;;;;;;;4.50;4.50;;;;;6.77;47.91;102443.81;6277677;22;46338;-73
2023/03/28 00:06:01;;;;;;;;;4.00;4.00;;;;;6.55;48.29;102416.91;6277442;22;45318;-73
2023/03/28 00:08:28;;;;;;;;;8.50;6.25;;;;;6.55;48.08;102423.06;6277046;22;45136;-73
2023/03/28 00:11:24;;;;;;;;;4.75;4.00;;;;;6.57;48.42;102429.34;6277476;22;45119;-73
2023/03/28 00:13:56;;;;;;;;;3.75;3.75;;;;;6.67;48.87;102452.81;6275468;22;47193;-73
2023/03/28 00:16:24;;;;;;;;;5.75;3.00;;;;;6.60;48.04;102447.03;6277277;22;45220;-73
2023/03/28 00:18:49;;;;;;;;;3.75;3.00;;;;;6.63;47.99;102455.13;6277643;22;45215;-73
2023/03/28 00:21:28;;;;;;;;;2.25;2.00;;;;;6.45;48.18;102428.53;6277226;22;45165;-73
2023/03/28 00:23:56;;;;;;;;;6.00;5.50;;;;;6.44;47.70;102429.31;6276983;22;45211;-73
2023/03/28 00:26:25;;;;;;;;;3.25;3.25;;;;;6.33;47.81;102411.94;6277229;22;45259;-73
2023/03/28 00:28:51;;;;;;;;;5.50;3.00;;;;;6.33;48.27;102417.19;6275598;22;45299;-73
2023/03/28 00:31:16;;;;;;;;;6.00;4.00;;;;;6.40;47.63;102424.69;6277084;22;45425;-73
2023/03/28 00:33:42;;;;;;;;;6.50;3.00;;;;;6.48;47.77;102442.78;6301515;22;47245;-73
2023/03/28 00:36:09;;;;;;;;;3.25;3.25;;;;;6.23;48.25;102398.19;6276984;22;45270;-74
2023/03/28 00:38:35;;;;;;;;;6.25;3.00;;;;;6.48;48.16;102441.88;6277473;22;45401;-73
2023/03/28 00:41:00;;;;;;;;;4.00;4.00;;;;;6.49;48.10;102443.69;6277375;22;45260;-73
2023/03/28 00:43:45;;;;;;;;;4.25;2.75;;;;;6.13;48.11;102385.25;6277628;22;45464;-73
2023/03/28 00:46:14;;;;;;;;;6.50;3.00;;;;;6.46;47.89;102446.09;6274807;22;45229;-73
2023/03/28 00:48:47;;;;;;;;;7.00;3.75;;;;;6.30;48.03;102422.25;6277726;22;45205;-73
2023/03/28 00:51:14;;;;;;;;;4.50;4.00;;;;;6.27;47.58;102421.25;6276608;22;45264;-73
2023/03/28 00:53:41;;;;;;;;;6.75;4.00;;;;;6.33;47.38;102430.31;6277116;22;45466;-73
2023/03/28 00:56:10;;;;;;;;;6.00;3.00;;;;;6.47;47.93;102456.72;6277041;22;45431;-73
2023/03/28 00:58:41;;;;;;;;;7.75;5.00;;;;;6.31;47.57;102419.72;6277127;22;45271;-73
2023/03/28 01:01:09;;;;;;;;;6.50;4.50;;;;;6.27;47.63;102408.13;6276837;22;45266;-73
2023/03/28 01:03:36;;;;;;;;;6.00;3.00;;;;;6.36;47.46;102427.91;6276929;22;45574;-73
2023/03/28 01:06:03;;;;;;;;;5.50;4.00;;;;;6.28;47.13;102404.66;6276746;22;44955;-73
2023/03/28 01:08:33;;;;;;;;;3.00;3.00;;;;;6.57;47.26;102442.47;6276442;22;45258;-73
2023/03/28 01:10:58;;;;;;;;;4.00;4.00;;;;;6.59;47.56;102443.50;6276449;22;45298;-73
2023/03/28 01:13:27;;;;;;;;;6.75;5.50;;;;;6.47;47.45;102412.06;6277014;22;45363;-73
2023/03/28 01:15:53;;;;;;;;;10.50;9.25;;;;;6.58;47.51;102433.81;6276721;22;45212;-73
2023/03/28 01:18:22;;;;;;;;;8.25;6.75;;;;;6.63;47.31;102428.84;6277136;22;45212;-73
2023/03/28 01:20:54;;;;;;;;;8.00;6.50;;;;;6.76;47.58;102438.47;6274947;22;45924;-74
2023/03/28 01:23:58;;;;;;;;;7.00;5.75;;;;;6.79;47.43;102429.06;6274007;22;45253;-73
2023/03/28 01:26:46;;;;;;;;;6.00;3.75;;;;;6.82;47.75;102424.00;6276749;22;45086;-73
2023/03/28 01:29:30;;;;;;;;;5.50;3.50;;;;;6.88;47.25;102420.84;6276889;22;45318;-73
2023/03/28 01:32:17;;;;;;;;;3.00;3.00;;;;;6.88;46.94;102415.59;6274339;22;45979;-73
2023/03/28 01:35:07;;;;;;;;;6.25;5.00;;;;;6.89;47.12;102413.09;6277101;22;45297;-73
2023/03/28 01:38:00;;;;;;;;;7.00;3.00;;;;;6.87;46.79;102408.53;6276114;22;45271;-73
2023/03/28 01:40:31;;;;;;;;;7.00;6.00;;;;;6.84;47.38;102401.38;6276356;22;45315;-73
2023/03/28 01:43:18;;;;;;;;;2.00;2.00;;;;;6.86;47.05;102399.75;6278346;22;45144;-73
2023/03/28 01:46:07;;;;;;;;;4.00;3.00;;;;;6.83;46.88;102382.84;6278469;22;45473;-73
2023/03/28 01:48:55;;;;;;;;;2.75;2.00;;;;;6.80;47.35;102377.41;6278035;22;45308;-73
2023/03/28 01:51:32;;;;;;;;;7.00;3.50;;;;;6.79;47.41;102370.34;6277679;22;45157;-73
2023/03/28 01:54:11;;;;;;;;;3.75;2.00;;;;;6.60;47.26;102352.44;6275431;22;45898;-73
2023/03/28 01:56:45;;;;;;;;;2.75;2.75;;;;;6.57;47.63;102350.53;6277944;22;45473;-73
2023/03/28 01:59:20;;;;;;;;;6.00;3.25;;;;;6.66;47.24;102369.50;6275348;22;45538;-73
2023/03/28 02:02:03;;;;;;;;;5.00;3.25;;;;;6.65;47.38;102378.22;6278274;22;45301;-73
2023/03/28 02:04:32;;;;;;;;;3.75;2.00;;;;;6.64;47.28;102381.66;6278250;22;45279;-73
2023/03/28 02:06:58;;;;;;;;;6.00;3.00;;;;;6.63;47.31;102378.94;6276804;22;45195;-73
2023/03/28 02:09:26;;;;;;;;;3.00;3.00;;;;;6.43;48.06;102346.09;6276181;22;45230;-73
2023/03/28 02:11:58;;;;;;;;;5.00;2.25;;;;;6.55;47.29;102381.03;6277657;22;45227;-73
2023/03/28 02:14:29;;;;;;;;;3.50;3.00;;;;;6.42;47.54;102346.91;6275690;22;45922;-73
2023/03/28 02:17:00;;;;;;;;;6.00;3.50;;;;;6.44;48.29;102363.66;6277661;22;45246;-73
2023/03/28 02:19:27;;;;;;;;;2.75;2.50;;;;;6.36;47.79;102355.31;6278119;22;45222;-73
2023/03/28 02:22:05;;;;;;;;;6.75;3.00;;;;;6.34;48.15;102354.28;6277894;22;45311;-73
2023/03/28 02:24:31;;;;;;;;;3.25;3.25;;;;;6.15;48.39;102331.13;6278031;22;45725;-73
2023/03/28 02:26:57;;;;;;;;;3.50;3.50;;;;;6.18;48.67;102330.44;6275974;22;47177;-73
2023/03/28 02:29:22;;;;;;;;;3.00;3.00;;;;;6.34;49.03;102356.00;6278503;22;45124;-73
2023/03/28 02:31:48;;;;;;;;;3.25;2.00;;;;;6.38;48.48;102358.91;6277930;22;45215;-73
2023/03/28 02:34:13;;;;;;;;;5.75;3.75;;;;;6.25;48.76;102330.94;6278334;22;45198;-73
2023/03/28 02:37:09;;;;;;;;;6.50;4.50;;;;;6.37;48.91;102351.84;6277426;22;45346;-73
2023/03/28 02:39:49;;;;;;;;;8.00;2.75;;;;;6.39;48.03;102341.47;6278530;22;45180;-73
2023/03/28 02:42:30;;;;;;;;;6.25;5.50;;;;;6.43;49.17;102335.59;6275982;22;45339;-73
2023/03/28 02:45:23;;;;;;;;;9.25;4.50;;;;;6.47;49.31;102325.41;6278169;22;45219;-73
2023/03/28 02:48:03;;;;;;;;;3.25;3.25;;;;;6.51;47.85;102326.50;6277720;22;45379;-73
2023/03/28 02:50:39;;;;;;;;;3.00;3.00;;;;;6.55;48.33;102331.13;6277836;22;45568;-73
2023/03/28 02:53:43;;;;;;;;;3.50;2.25;;;;;6.59;47.72;102319.13;6277906;22;45283;-73
2023/03/28 02:56:23;;;;;;;;;4.00;2.00;;;;;6.50;47.38;102307.19;6277759;22;45189;-73
2023/03/28 02:58:54;;;;;;;;;1.25;1.25;;;;;6.60;47.26;102311.31;6278159;22;45304;-73
2023/03/28 03:01:24;;;;;;;;;2.00;1.00;;;;;6.57;47.01;102303.25;6275767;22;45221;-73
2023/03/28 03:03:50;;;;;;;;;3.75;1.75;;;;;6.69;47.51;102300.50;6277911;22;45242;-74
2023/03/28 03:06:16;;;;;;;;;5.00;2.50;;;;;6.67;47.82;102289.00;6277340;22;45092;-73
2023/03/28 03:08:42;;;;;;;;;2.00;2.00;;;;;6.55;47.96;102264.53;6276996;22;45385;-73
2023/03/28 03:11:07;;;;;;;;;3.00;2.00;;;;;6.49;46.68;102242.31;6277219;22;44789;-73
2023/03/28 03:13:33;;;;;;;;;2.00;2.00;;;;;6.69;47.40;102271.59;6275548;22;45269;-73
2023/03/28 03:15:58;;;;;;;;;2.25;2.25;;;;;6.69;47.04;102277.78;6277483;22;45270;-73
2023/03/28 03:18:25;;;;;;;;;1.50;1.00;;;;;6.69;46.87;102274.22;6275067;22;46722;-73
2023/03/28 03:20:51;;;;;;;;;3.25;2.25;;;;;6.71;47.32;102277.84;6277867;22;45283;-73
2023/03/28 03:23:17;;;;;;;;;5.50;2.75;;;;;6.73;46.80;102274.53;6277799;22;45251;-73
2023/03/28 03:25:42;;;;;;;;;3.00;3.00;;;;;6.73;47.38;102264.00;6302095;22;45882;-73
2023/03/28 03:28:08;;;;;;;;;2.00;2.00;;;;;6.68;47.76;102252.28;6277735;22;45206;-73
2023/03/28 03:30:33;;;;;;;;;1.25;1.25;;;;;6.54;47.15;102234.75;6277962;22;45161;-73
2023/03/28 03:32:59;;;;;;;;;1.25;1.25;;;;;6.52;47.74;102227.56;6277907;22;45198;-73
2023/03/28 03:35:27;;;;;;;;;4.00;2.00;;;;;6.76;47.70;102279.06;6277890;22;45413;-73
2023/03/28 03:37:53;;;;;;;;;6.75;2.25;;;;;6.63;47.72;102251.09;6274639;22;46968;-73
2023/03/28 03:40:18;;;;;;;;;2.00;2.00;;;;;6.68;47.94;102254.00;6278050;22;44771;-73
2023/03/28 03:42:44;;;;;;;;;3.25;1.50;;;;;6.66;48.15;102253.00;6277835;22;45240;-73
2023/03/28 03:45:10;;;;;;;;;3.00;3.00;;;;;6.58;47.52;102249.91;6278033;22;45205;-73
2023/03/28 03:47:35;;;;;;;;;3.50;2.00;;;;;6.45;48.20;102229.81;6277574;22;45344;-73
2023/03/28 03:50:00;;;;;;;;;4.50;3.00;;;;;6.37;48.56;102217.91;6276799;22;45286;-73
2023/03/28 03:52:26;;;;;;;;;3.00;3.00;;;;;6.53;48.36;102253.97;6277260;22;45396;-73
2023/03/28 03:54:51;;;;;;;;;6.25;3.00;;;;;6.39;48.04;102228.53;6277567;22;52229;-73
2023/03/28 03:57:16;;;;;;;;;2.75;2.75;;;;;6.44;48.98;102245.47;6275239;22;51385;-73
2023/03/28 03:59:42;;;;;;;;;2.75;2.75;;;;;6.50;48.66;102261.66;6276776;22;45138;-73
2023/03/28 04:02:07;;;;;;;;;5.50;3.75;;;;;6.38;49.04;102243.34;6277705;22;45160;-73
2023/03/28 04:04:32;;;;;;;;;3.50;2.25;;;;;6.32;48.87;102242.97;6277549;22;45231;-73
2023/03/28 04:06:58;;;;;;;;;3.75;3.75;;;;;6.24;49.73;102225.81;6274477;22;47036;-73
2023/03/28 04:09:26;;;;;;;;;7.00;4.00;;;;;6.47;50.05;102270.22;6277858;22;45169;-73
2023/03/28 04:11:53;;;;;;;;;6.50;3.50;;;;;6.35;49.33;102253.66;6277417;22;45245;-73
2023/03/28 04:14:19;;;;;;;;;3.00;3.00;;;;;6.28;49.35;102248.84;6277410;22;45247;-73
2023/03/28 04:16:45;;;;;;;;;3.50;2.75;;;;;6.30;49.49;102238.41;6277192;22;45486;-73
2023/03/28 04:19:12;;;;;;;;;4.00;4.00;;;;;6.44;49.70;102258.59;6274954;22;45278;-73
2023/03/28 04:21:41;;;;;;;;;5.50;5.50;;;;;6.39;50.32;102241.66;6274727;22;45272;-73
2023/03/28 04:24:07;;;;;;;;;3.00;3.00;;;;;6.45;50.43;102252.56;6275822;22;46532;-73
2023/03/28 04:26:36;;;;;;;;;4.00;4.00;;;;;6.37;50.17;102232.78;6277563;22;45322;-73
2023/03/28 04:29:02;;;;;;;;;4.00;4.00;;;;;6.35;50.21;102232.66;6277009;22;45278;-73
2023/03/28 04:31:28;;;;;;;;;5.00;3.50;;;;;6.44;50.38;102245.47;6277130;22;45244;-73
2023/03/28 04:33:53;;;;;;;;;2.50;2.50;;;;;6.18;50.48;102210.56;6277484;22;45142;-73
2023/03/28 04:36:21;;;;;;;;;3.75;2.50;;;;;6.26;49.78;102219.84;6276723;22;46450;-72
2023/03/28 04:38:47;;;;;;;;;6.75;4.00;;;;;6.39;50.48;102245.19;6277007;22;45097;-72
2023/03/28 04:41:15;;;;;;;;;5.00;4.00;;;;;6.28;50.61;102226.09;6277608;22;45357;-73
2023/03/28 04:43:41;;;;;;;;;2.50;2.50;;;;;6.31;49.98;102228.03;6277317;22;45272;-73
2023/03/28 04:46:06;;;;;;;;;4.00;4.00;;;;;6.24;49.95;102226.69;6301239;22;46907;-73
2023/03/28 04:48:32;;;;;;;;;9.75;4.00;;;;;6.35;50.41;102255.38;6277535;22;45284;-72
2023/03/28 04:50:57;;;;;;;;;3.75;2.75;;;;;6.15;50.05;102223.50;6274921;22;45233;-72
2023/03/28 04:53:23;;;;;;;;;3.50;3.00;;;;;6.05;50.89;102206.25;6277024;22;45466;-73
2023/03/28 04:55:49;;;;;;;;;3.25;3.25;;;;;5.85;50.92;102172.50;6277166;22;46384;-73
2023/03/28 04:58:22;;;;;;;;;5.50;4.00;;;;;6.34;49.97;102256.22;6274970;22;45182;-73
2023/03/28 05:00:48;;;;;;;;;3.50;3.50;;;;;5.93;49.16;102179.19;6277138;22;45161;-73
2023/03/28 05:03:18;;;;;;;;;2.00;2.00;;;;;6.05;50.41;102194.84;6274840;22;45676;-74
2023/03/28 05:05:45;;;;;;;;;3.25;3.25;;;;;6.32;49.74;102234.19;6276722;22;45995;-73
2023/03/28 05:08:12;;;;;;;;;3.00;3.00;;;;;6.05;50.39;102185.25;6274302;22;45757;-72
2023/03/28 05:10:38;;;;;;;;;6.00;4.00;;;;;6.37;50.90;102236.28;6277908;22;45307;-74
2023/03/28 05:13:04;;;;;;;;;5.50;3.00;;;;;6.44;50.33;102258.59;6278076;22;45235;-71
2023/03/28 05:15:30;;;;;;;;;5.50;4.00;;;;;6.50;50.20;102252.03;6279121;22;45453;-71
2023/03/28 05:17:56;;;;;;;;;7.75;3.75;;;;;6.48;50.67;102242.25;6277343;22;45220;-71
2023/03/28 05:20:21;;;;;;;;;4.50;4.00;;;;;6.26;50.38;102193.59;6278299;22;45137;-74
2023/03/28 05:22:46;;;;;;;;;5.50;4.00;;;;;6.52;50.95;102243.34;6275624;22;46511;-71
2023/03/28 05:25:12;;;;;;;;;4.00;4.00;;;;;6.56;50.27;102235.75;6277688;22;45420;-72
2023/03/28 05:27:38;;;;;;;;;7.00;5.50;;;;;6.43;50.48;102212.16;6276335;22;46010;-72
2023/03/28 05:30:05;;;;;;;;;7.75;4.00;;;;;6.53;50.57;102229.41;6276818;22;45225;-73
2023/03/28 05:32:31;;;;;;;;;6.00;6.00;;;;;6.64;51.00;102245.03;6278161;22;45281;-73
2023/03/28 05:34:56;;;;;;;;;9.50;8.75;;;;;6.51;51.39;102226.69;6275946;22;46620;-72
2023/03/28 05:37:22;;;;;;;;;7.25;6.75;;;;;6.61;51.45;102247.47;6278201;22;45193;-73
2023/03/28 05:39:47;;;;;;;;;8.75;6.75;;;;;6.60;51.71;102250.00;6278611;22;45141;-73
2023/03/28 05:42:12;;;;;;;;;9.00;7.00;;;;;6.60;50.83;102253.53;6276302;22;45577;-73
2023/03/28 05:44:38;;;;;;;;;9.00;8.25;;;;;6.45;51.21;102218.41;6278146;22;45631;-72
2023/03/28 05:47:03;;;;;;;;;6.00;3.75;;;;;6.50;50.04;102219.63;6278023;22;48533;-73
2023/03/28 05:49:28;;;;;;;;;10.00;9.25;;;;;6.63;51.76;102242.31;6278813;22;45177;-73
2023/03/28 05:51:54;;;;;;;;;12.50;9.00;;;;;6.57;51.34;102220.91;6277589;22;45168;-73
2023/03/28 05:54:19;;;;;;;;;7.50;7.50;;;;;6.54;51.47;102215.47;6278473;22;45264;-73
2023/03/28 05:56:44;;;;;;;;;25.00;19.75;;;;;6.58;51.73;102222.72;6278327;22;45163;-73
2023/03/28 05:59:10;;;;;;;;;9.50;7.50;;;;;6.74;51.31;102241.25;6278427;22;45140;-73
2023/03/28 06:01:35;;;;;;;;;11.75;8.25;;;;;6.70;51.75;102223.50;6301862;22;46760;-73
2023/03/28 06:04:02;;;;;;;;;13.25;12.50;;;;;6.41;50.72;102167.41;6278168;22;45897;-73
2023/03/28 06:06:27;;;;;;;;;18.75;16.50;;;;;6.73;51.41;102227.22;6275842;22;45287;-73
2023/03/28 06:08:53;;;;;;;;;10.75;10.25;;;;;6.55;50.90;102209.38;6277395;22;45239;-73
2023/03/28 06:11:18;;;;;;;;;13.50;12.00;;;;;6.76;52.12;102244.00;6277990;22;45294;-73
2023/03/28 06:13:43;;;;;;;;;7.50;7.50;;;;;6.78;50.92;102248.53;6301750;22;55281;-73
2023/03/28 06:16:09;;;;;;;;;9.25;7.75;;;;;6.84;51.30;102258.53;6278034;22;45278;-73
2023/03/28 06:18:34;;;;;;;;;23.00;21.25;;;;;6.81;51.59;102240.84;6277880;22;45274;-73
2023/03/28 06:21:00;;;;;;;;;12.00;12.00;;;;;6.87;51.74;102251.75;6277534;22;45192;-73
2023/03/28 06:23:25;;;;;;;;;10.00;9.00;;;;;6.90;50.68;102246.66;6275659;22;46412;-72
2023/03/28 06:25:50;;;;;;;;;8.75;8.75;;;;;6.95;51.42;102255.75;6275372;22;45439;-73
2023/03/28 06:28:16;;;;;;;;;6.75;6.25;;;;;7.07;51.42;102267.84;6301649;22;45396;-72
2023/03/28 06:30:41;;;;;;;;;9.00;7.00;;;;;7.12;51.32;102272.56;6276014;22;45540;-73
2023/03/28 06:33:07;;;;;;;;;8.25;8.00;;;;;7.18;50.45;102272.03;6277890;22;47367;-73
2023/03/28 06:35:33;;;;;;;;;8.00;6.00;;;;;7.17;51.37;102258.00;6278173;22;45294;-72
2023/03/28 06:37:59;;;;;;;;;10.00;7.75;;;;;7.06;51.14;102230.13;6277281;22;45423;-72
2023/03/28 06:40:25;;;;;;;;;9.25;7.50;;;;;7.35;51.20;102273.09;6278387;22;45244;-72
2023/03/28 06:42:51;;;;;;;;;8.25;8.00;;;;;7.40;51.47;102275.19;6277777;22;45243;-72
2023/03/28 06:45:16;;;;;;;;;8.75;8.25;;;;;7.35;50.94;102250.31;6278205;22;45137;-72
2023/03/28 06:47:42;;;;;;;;;6.25;6.25;;;;;7.47;50.38;102275.53;6276087;22;45112;-72
2023/03/28 06:50:07;;;;;;;;;7.00;4.75;;;;;7.45;50.45;102270.22;6277912;22;45224;-71
2023/03/28 06:52:33;;;;;;;;;7.75;7.75;;;;;7.36;50.31;102244.22;6275371;22;46074;-70
2023/03/28 06:54:58;;;;;;;;;7.00;7.00;;;;;7.42;50.78;102241.06;6275502;22;45292;-70
2023/03/28 06:57:24;;;;;;;;;7.25;7.25;;;;;7.43;50.93;102248.16;6277902;22;45391;-70
2023/03/28 06:59:51;;;;;;;;;7.50;7.50;;;;;7.44;51.26;102249.94;6278061;22;45198;-72
2023/03/28 07:02:16;;;;;;;;;9.00;7.00;;;;;7.53;50.65;102252.22;6277429;22;45224;-72
2023/03/28 07:04:41;;;;;;;;;9.25;7.50;;;;;7.51;50.33;102235.47;6277971;22;45247;-72
2023/03/28 07:07:08;;;;;;;;;9.00;9.00;;;;;7.55;50.71;102233.09;6276822;22;45421;-71
2023/03/28 07:09:34;;;;;;;;;8.50;7.50;;;;;7.52;50.26;102211.84;6301940;22;46932;-71
2023/03/28 07:11:59;;;;;;;;;10.75;9.75;;;;;7.62;50.38;102222.13;6277244;22;45541;-71
2023/03/28 07:14:25;;;;;;;;;10.00;9.50;;;;;7.55;50.08;102200.59;6277805;22;45214;-72
2023/03/28 07:16:50;;;;;;;;;13.00;8.25;;;;;7.55;50.67;102195.34;6277920;22;44751;-72
2023/03/28 07:19:16;;;;;;;;;13.00;9.25;;;;;7.70;50.27;102205.84;6277944;22;45145;-72
2023/03/28 07:21:41;;;;;;;;;10.25;8.00;;;;;7.71;50.08;102202.44;6274771;22;46983;-72
2023/03/28 07:24:07;;;;;;;;;10.00;9.00;;;;;7.77;50.25;102211.56;6278071;22;45152;-72
2023/03/28 07:26:32;;;;;;;;;6.50;5.25;;;;;7.76;49.97;102220.31;6278035;22;45379;-72
2023/03/28 07:28:57;;;;;;;;;8.00;8.00;;;;;7.70;49.64;102198.91;6277750;22;45226;-72
2023/03/28 07:31:24;;;;;;;;;10.50;9.00;;;;;7.74;49.41;102200.88;6276926;22;45460;-72
2023/03/28 07:33:50;;;;;;;;;11.25;10.00;;;;;7.89;50.00;102224.53;6275034;22;45330;-72
2023/03/28 07:36:19;;;;;;;;;7.75;7.75;;;;;8.16;49.45;102250.66;6275048;22;45209;-73
2023/03/28 07:38:45;;;;;;;;;16.00;11.50;;;;;8.12;49.01;102219.69;6277221;22;45386;-73
2023/03/28 07:41:11;;;;;;;;;5.50;5.50;;;;;8.25;48.98;102224.84;6277161;22;45267;-73
2023/03/28 07:43:40;;;;;;;;;11.00;7.75;;;;;8.32;49.23;102220.81;6277887;22;45239;-73
2023/03/28 07:46:08;;;;;;;;;11.00;7.75;;;;;8.59;48.50;102247.84;6277339;22;45085;-72
2023/03/28 07:48:35;;;;;;;;;10.50;9.50;;;;;8.50;48.70;102211.34;6277575;22;45133;-74
2023/03/28 07:51:01;;;;;;;;;12.00;8.00;;;;;8.83;48.04;102243.94;6277239;22;45404;-73
2023/03/28 07:53:27;;;;;;;;;7.25;7.25;;;;;8.94;48.48;102244.50;6277567;22;45183;-73
2023/03/28 07:55:53;;;;;;;;;11.00;9.00;;;;;8.97;47.43;102242.03;6278016;22;45300;-73
2023/03/28 07:58:18;;;;;;;;;8.75;8.00;;;;;8.96;46.84;102243.78;6275396;22;45061;-73
2023/03/28 08:00:44;;;;;;;;;9.75;9.50;;;;;9.15;48.26;102257.94;6277770;22;46367;-73
2023/03/28 08:03:11;;;;;;;;;12.50;9.75;;;;;9.24;47.52;102246.97;6277332;22;45250;-73
2023/03/28 08:05:37;;;;;;;;;9.75;7.00;;;;;9.43;47.01;102240.94;6274387;22;44740;-73
2023/03/28 08:08:04;;;;;;;;;11.50;11.25;;;;;9.60;46.69;102237.41;6276393;22;45225;-73
2023/03/28 08:10:29;;;;;;;;;14.75;9.00;;;;;9.71;46.37;102230.94;6277525;22;46191;-73
2023/03/28 08:12:54;;;;;;;;;10.75;9.00;;;;;9.79;47.61;102228.72;6277290;22;45148;-73
2023/03/28 08:15:20;;;;;;;;;9.75;8.00;;;;;9.98;46.41;102252.56;6300817;22;45342;-73
2023/03/28 08:17:45;;;;;;;;;10.25;9.75;;;;;10.00;46.90;102236.81;6277502;22;45105;-73
2023/03/28 08:20:11;;;;;;;;;14.75;10.75;;;;;9.88;45.99;102210.66;6277020;22;45502;-74
2023/03/28 08:22:36;;;;;;;;;10.75;10.50;;;;;10.22;45.33;102255.53;6277329;22;45247;-73
2023/03/28 08:25:03;;;;;;;;;24.50;21.00;;;;;10.15;45.37;102216.41;6277618;22;45155;-76
2023/03/28 08:27:28;;;;;;;;;10.00;9.50;;;;;10.41;45.66;102227.38;6274884;22;46191;-73
2023/03/28 08:29:54;;;;;;;;;12.00;12.00;;;;;10.62;45.63;102254.84;6275365;22;47369;-72
2023/03/28 08:32:19;;;;;;;;;20.75;18.50;;;;;10.70;45.05;102240.25;6274956;22;45304;-72
2023/03/28 08:34:45;;;;;;;;;28.00;20.25;;;;;10.59;44.65;102225.63;6277378;22;45334;-72
2023/03/28 08:37:10;;;;;;;;;11.75;9.25;;;;;10.74;45.64;102244.81;6276714;22;45544;-73
2023/03/28 08:39:36;;;;;;;;;24.75;20.00;;;;;10.69;45.40;102245.44;6277065;22;45452;-72
2023/03/28 08:42:39;;;;;;;;;76.00;54.00;;;;;10.71;45.55;102260.56;6276631;22;45194;-73
2023/03/28 08:45:32;;;;;;;;;10.25;8.75;;;;;10.48;45.53;102195.13;6277261;22;44756;-71
2023/03/28 08:48:04;;;;;;;;;31.00;24.50;;;;;10.75;42.90;102237.78;6276959;22;45456;-71
2023/03/28 08:50:34;;;;;;;;;20.25;15.75;;;;;10.72;43.46;102249.13;6277845;22;45156;-72
2023/03/28 08:53:00;;;;;;;;;12.00;9.00;;;;;10.64;43.84;102224.09;6277686;22;45276;-71
2023/03/28 08:55:35;;;;;;;;;25.50;25.25;;;;;10.62;44.04;102220.47;6278070;22;45370;-72
2023/03/28 08:58:02;;;;;;;;;9.00;6.75;;;;;10.51;44.02;102203.19;6275402;22;45816;-72
2023/03/28 09:00:33;;;;;;;;;8.75;7.00;;;;;10.74;43.05;102236.00;6276296;22;47495;-72
2023/03/28 09:02:59;;;;;;;;;9.25;7.00;;;;;10.77;43.12;102227.31;6277611;22;45353;-72
2023/03/28 09:05:32;;;;;;;;;10.50;7.50;;;;;10.73;44.11;102203.34;6277997;22;45239;-71
2023/03/28 09:08:07;;;;;;;;;3.00;3.00;;;;;10.86;43.69;102225.97;6277129;22;45408;-73
2023/03/28 09:10:42;;;;;;;;;7.50;6.00;;;;;10.76;42.90;102202.59;6275619;22;45687;-72
2023/03/28 09:13:20;;;;;;;;;9.00;8.25;;;;;11.00;42.90;102221.31;6275862;22;45492;-72
2023/03/28 09:16:07;;;;;;;;;21.50;14.75;;;;;11.09;43.41;102223.47;6278296;22;45393;-72
2023/03/28 09:19:00;;;;;;;;;9.50;7.25;;;;;11.10;41.71;102204.13;6278174;22;45441;-73
2023/03/28 09:22:13;;;;;;;;;12.50;7.75;;;;;11.23;40.76;102213.50;6277640;22;45537;-72
2023/03/28 09:24:57;;;;;;;;;6.50;5.00;;;;;11.22;41.30;102211.69;6226347;22;45342;-72
2023/03/28 09:27:31;;;;;;;;;5.50;4.50;;;;;11.20;41.50;102214.25;6276329;22;45388;-72
2023/03/28 09:30:17;;;;;;;;;5.75;5.00;;;;;11.04;41.93;102199.47;6276112;22;45473;-71
2023/03/28 09:32:42;;;;;;;;;8.50;8.50;;;;;11.00;43.33;102170.16;6275389;22;47775;-72
2023/03/28 09:35:20;;;;;;;;;16.25;16.25;;;;;11.14;40.49;102212.25;6278049;22;45362;-72
2023/03/28 09:38:08;;;;;;;;;6.50;6.50;;;;;11.03;41.85;102176.47;6277400;22;45260;-72
2023/03/28 09:40:34;;;;;;;;;10.00;9.50;;;;;11.12;40.97;102161.03;6275820;22;46012;-72
2023/03/28 09:43:30;;;;;;;;;22.00;15.50;;;;;11.39;41.97;102185.13;6278061;22;45399;-71
2023/03/28 09:46:06;;;;;;;;;12.00;12.00;;;;;11.30;40.06;102155.59;6278099;22;45394;-71
2023/03/28 09:48:35;;;;;;;;;12.00;11.25;;;;;11.56;40.70;102180.53;6276932;22;44663;-71
2023/03/28 09:51:01;;;;;;;;;10.00;9.00;;;;;11.47;41.21;102156.31;6277248;22;45269;-71
2023/03/28 09:53:35;;;;;;;;;12.50;7.00;;;;;11.77;40.54;102169.97;6277577;22;45260;-72
2023/03/28 09:56:12;;;;;;;;;13.00;13.00;;;;;11.82;41.62;102152.50;6277782;22;45339;-71
2023/03/28 09:58:55;;;;;;;;;9.25;9.25;;;;;11.92;40.93;102144.97;6278846;22;45329;-73
2023/03/28 10:01:45;;;;;;;;;15.00;11.75;;;;;12.28;40.47;102166.72;6277476;22;45468;-73
2023/03/28 10:04:16;;;;;;;;;20.50;18.50;;;;;12.28;39.67;102145.53;6277676;22;45263;-73
2023/03/28 10:06:43;;;;;;;;;15.25;12.25;;;;;12.40;38.71;102123.88;6275218;22;45296;-73
2023/03/28 10:09:19;;;;;;;;;28.00;24.00;;;;;12.74;39.71;102165.81;6276303;22;45186;-74
2023/03/28 10:11:47;;;;;;;;;8.75;6.25;;;;;12.80;40.28;102151.88;6275601;22;45652;-72
2023/03/28 10:14:28;;;;;;;;;7.25;4.50;;;;;12.89;40.68;102149.59;6275537;22;46670;-72
2023/03/28 10:16:54;;;;;;;;;78.00;66.00;;;;;12.94;38.46;102134.75;6275330;22;45120;-71
2023/03/28 10:19:23;;;;;;;;;5.00;4.00;;;;;12.99;40.61;102135.78;6277967;22;45173;-71
2023/03/28 10:21:49;;;;;;;;;5.75;5.00;;;;;13.03;38.33;102136.81;6277124;22;45318;-72
2023/03/28 10:24:19;;;;;;;;;6.25;5.25;;;;;13.10;36.67;102147.69;6278356;22;45303;-71
2023/03/28 10:26:45;;;;;;;;;8.25;7.50;;;;;13.12;39.14;102140.69;6277870;22;45159;-71
2023/03/28 10:29:13;;;;;;;;;12.50;8.50;;;;;13.10;38.25;102153.00;6278146;22;45140;-71
2023/03/28 10:31:46;;;;;;;;;6.25;6.25;;;;;13.10;38.84;102149.44;6275405;22;45591;-71
2023/03/28 10:34:27;;;;;;;;;8.25;5.50;;;;;13.03;39.60;102131.50;6277948;22;45230;-71
2023/03/28 10:36:52;;;;;;;;;4.50;4.50;;;;;12.56;36.45;102107.69;6300987;22;45303;-71
2023/03/28 10:39:24;;;;;;;;;6.00;4.50;;;;;12.80;38.31;102109.44;6278527;22;45280;-71
2023/03/28 10:42:00;;;;;;;;;2.25;2.25;;;;;12.93;37.31;102140.88;6277805;22;45255;-70
2023/03/28 10:44:30;;;;;;;;;3.00;3.00;;;;;12.93;37.83;102138.22;6277854;22;46323;-70
2023/03/28 10:47:00;;;;;;;;;2.50;2.50;;;;;12.81;37.91;102109.50;6278057;22;45327;-71
2023/03/28 10:49:28;;;;;;;;;2.50;2.50;;;;;12.83;36.72;102109.56;6278135;22;45306;-69
2023/03/28 10:51:54;;;;;;;;;3.75;3.25;;;;;12.79;38.77;102112.94;6277330;22;45334;-71
2023/03/28 10:54:19;;;;;;;;;2.00;2.00;;;;;12.75;36.45;102109.28;6275319;22;46511;-72
2023/03/28 10:56:53;;;;;;;;;4.00;3.00;;;;;12.76;38.88;102114.63;6277762;22;45281;-72
2023/03/28 10:59:45;;;;;;;;;2.75;2.00;;;;;12.75;38.12;102107.53;6276113;22;45334;-72
2023/03/28 11:02:31;;;;;;;;;3.75;3.75;;;;;12.77;38.78;102107.56;6277725;22;45220;-73
2023/03/28 11:05:09;;;;;;;;;4.00;4.00;;;;;12.79;37.91;102113.84;6277989;22;45330;-73
2023/03/28 11:07:43;;;;;;;;;2.25;2.25;;;;;12.68;36.85;102108.13;6276520;22;45114;-74
2023/03/28 11:10:33;;;;;;;;;4.75;0.25;;;;;12.73;38.48;102087.09;6278233;22;44729;-74
2023/03/28 11:13:23;;;;;;;;;4.25;3.75;;;;;12.67;36.79;102094.84;6277964;22;45288;-73
2023/03/28 11:15:57;;;;;;;;;2.75;2.75;;;;;12.76;36.78;102087.19;6277863;22;45308;-72
2023/03/28 11:18:48;;;;;;;;;3.00;1.25;;;;;12.88;38.11;102095.63;6275388;22;45203;-71
2023/03/28 11:21:25;;;;;;;;;4.75;3.00;;;;;12.95;38.30;102094.06;6277302;22;45678;-71
2023/03/28 11:24:30;;;;;;;;;6.00;5.00;;;;;13.05;37.86;102088.25;6278002;22;45235;-71
2023/03/28 11:27:43;;;;;;;;;4.25;4.00;;;;;13.05;38.12;102080.28;6274939;22;47701;-73
2023/03/28 11:30:33;;;;;;;;;3.75;2.75;;;;;13.04;37.63;102061.63;6206137;22;45326;-74
2023/03/28 11:33:13;;;;;;;;;6.00;3.50;;;;;12.56;36.64;102072.31;6265542;22;45149;-74
2023/03/28 11:35:58;;;;;;;;;4.00;3.00;;;;;12.93;38.14;102045.34;6275495;22;45916;-72
2023/03/28 11:38:30;;;;;;;;;6.00;3.00;;;;;13.04;38.03;102058.97;6274843;22;45731;-73
2023/03/28 11:40:58;;;;;;;;;5.75;3.75;;;;;12.96;37.39;102056.94;6275407;22;45248;-71
2023/03/28 11:43:36;;;;;;;;;3.75;3.75;;;;;12.94;37.37;102048.06;6274969;22;45247;-73
2023/03/28 11:46:10;;;;;;;;;7.25;4.75;;;;;12.97;38.61;102021.63;6274841;22;45405;-71